createdAt,value
2022-08-07T00:01:44.185Z,86.10
2022-08-07T00:04:04.638Z,86.65
2022-08-07T00:06:33.890Z,86.27
2022-08-07T00:09:16.198Z,86.33
2022-08-07T00:11:54.491Z,86.38
2022-08-07T00:14:30.427Z,86.99
2022-08-07T00:17:02.554Z,86.83
2022-08-07T00:19:56.016Z,86.95
2022-08-07T00:22:34.547Z,86.78
2022-08-07T00:25:11.092Z,87.34
2022-08-07T00:27:52.579Z,89.25
2022-08-07T00:30:28.055Z,89.17
2022-08-07T00:32:57.316Z,88.06
2022-08-07T00:35:25.482Z,88.47
2022-08-07T00:37:55.119Z,88.99
2022-08-07T00:40:40.024Z,88.84
2022-08-07T00:43:59.639Z,89.30
2022-08-07T00:46:01.965Z,90.66
2022-08-07T00:48:32.012Z,90.89
2022-08-07T00:51:00.764Z,89.20
2022-08-07T00:53:39.367Z,90.07
2022-08-07T00:56:15.735Z,89.80
2022-08-07T00:58:47.019Z,89.91
2022-08-07T01:01:16.132Z,89.57
2022-08-07T01:03:55.802Z,89.67
2022-08-07T01:06:28.578Z,89.58
2022-08-07T01:08:58.456Z,90.53
2022-08-07T01:12:23.722Z,90.71
2022-08-07T01:14:16.769Z,91.40
2022-08-07T01:16:47.179Z,91.24
2022-08-07T01:19:26.698Z,91.95
2022-08-07T01:21:55.661Z,91.70
2022-08-07T01:24:30.678Z,91.87
2022-08-07T01:26:59.974Z,92.18
2022-08-07T01:29:31.440Z,93.60
2022-08-07T01:32:05.247Z,92.30
2022-08-07T01:34:33.407Z,91.90
2022-08-07T01:37:09.866Z,93.35
2022-08-07T01:39:46.406Z,92.99
2022-08-07T01:42:39.753Z,93.91
2022-08-07T01:45:18.187Z,93.03
2022-08-07T01:48:17.797Z,93.48
2022-08-07T01:50:46.005Z,93.96
2022-08-07T01:53:21.064Z,93.80
2022-08-07T01:56:02.491Z,94.30
2022-08-07T01:58:37.481Z,94.07
2022-08-07T02:01:25.608Z,94.14
2022-08-07T02:04:14.018Z,96.09
2022-08-07T02:06:49.018Z,94.92
2022-08-07T02:09:43.616Z,94.30
2022-08-07T02:12:18.209Z,94.79
2022-08-07T02:15:00.657Z,95.04
2022-08-07T02:17:49.533Z,94.76
2022-08-07T02:20:25.137Z,95.74
2022-08-07T02:23:00.100Z,95.04
2022-08-07T02:26:10.351Z,95.01
2022-08-07T02:28:27.193Z,95.06
2022-08-07T02:31:10.290Z,94.59
2022-08-07T02:34:04.006Z,94.91
2022-08-07T02:36:45.347Z,94.68
2022-08-07T02:39:43.418Z,94.28
2022-08-07T02:42:10.319Z,93.82
2022-08-07T02:44:48.183Z,94.35
2022-08-07T02:47:23.483Z,94.45
2022-08-07T02:49:57.665Z,94.96
2022-08-07T02:52:33.552Z,95.03
2022-08-07T02:55:27.324Z,95.64
2022-08-07T02:57:59.765Z,95.64
2022-08-07T03:00:30.382Z,96.39
2022-08-07T03:03:00.270Z,95.80
2022-08-07T03:05:37.102Z,96.28
2022-08-07T03:08:10.182Z,96.98
2022-08-07T03:10:46.448Z,97.63
2022-08-07T03:13:20.171Z,98.75
2022-08-07T03:15:56.278Z,98.29
2022-08-07T03:18:34.263Z,98.43
2022-08-07T03:21:08.829Z,99.02
2022-08-07T03:24:21.219Z,98.67
2022-08-07T03:26:33.818Z,98.77
2022-08-07T03:29:11.101Z,99.19
2022-08-07T03:31:46.202Z,99.77
2022-08-07T03:34:18.712Z,99.94
2022-08-07T03:36:55.123Z,100.00
2022-08-07T03:39:59.193Z,99.50
2022-08-07T03:42:17.285Z,99.60
2022-08-07T03:44:47.326Z,99.73
2022-08-07T03:47:25.352Z,100.00
2022-08-07T03:49:57.273Z,100.00
2022-08-07T03:52:28.654Z,100.00
2022-08-07T03:55:06.610Z,100.00
2022-08-07T03:58:08.721Z,100.00
2022-08-07T04:00:33.673Z,100.00
2022-08-07T04:03:03.879Z,100.00
2022-08-07T04:05:39.709Z,100.00
2022-08-07T04:08:16.045Z,100.00
2022-08-07T04:10:54.116Z,100.00
2022-08-07T04:14:09.229Z,100.00
2022-08-07T04:16:30.964Z,100.00
2022-08-07T04:19:04.427Z,100.00
2022-08-07T04:21:58.896Z,100.00
2022-08-07T04:24:33.992Z,100.00
2022-08-07T04:27:20.483Z,100.00
2022-08-07T04:30:01.797Z,100.00
2022-08-07T04:32:58.119Z,100.00
2022-08-07T04:35:34.999Z,100.00
2022-08-07T04:38:08.212Z,100.00
2022-08-07T04:40:59.754Z,100.00
2022-08-07T04:44:11.763Z,100.00
2022-08-07T04:47:04.787Z,100.00
2022-08-07T04:50:10.860Z,100.00
2022-08-07T04:52:58.832Z,100.00
2022-08-07T04:58:10.346Z,100.00
2022-08-07T04:59:17.167Z,100.00
2022-08-07T05:02:16.808Z,99.72
2022-08-07T05:05:11.879Z,99.45
2022-08-07T05:08:07.815Z,97.34
2022-08-07T05:10:58.437Z,89.85
2022-08-07T05:14:54.219Z,84.25
2022-08-07T05:16:29.546Z,80.37
2022-08-07T05:19:00.929Z,79.23
2022-08-07T05:21:59.445Z,78.84
2022-08-07T05:24:30.630Z,77.11
2022-08-07T05:27:21.801Z,75.30
2022-08-07T05:29:58.583Z,75.11
2022-08-07T05:32:26.443Z,74.24
2022-08-07T05:34:54.491Z,74.84
2022-08-07T05:37:25.471Z,73.59
2022-08-07T05:40:13.645Z,73.20
2022-08-07T05:42:55.958Z,70.90
2022-08-07T05:45:46.943Z,69.77
2022-08-07T05:48:13.897Z,69.82
2022-08-07T05:50:45.010Z,68.06
2022-08-07T05:54:12.940Z,64.97
2022-08-07T05:56:05.945Z,65.73
2022-08-07T05:58:39.725Z,65.64
2022-08-07T06:01:12.214Z,64.71
2022-08-07T06:03:58.480Z,63.03
2022-08-07T06:06:33.476Z,60.45
2022-08-07T06:09:05.172Z,60.66
2022-08-07T06:11:36.343Z,59.56
2022-08-07T06:14:11.676Z,60.65
2022-08-07T06:16:50.262Z,59.76
2022-08-07T06:19:57.721Z,60.07
2022-08-07T06:22:23.752Z,59.41
2022-08-07T06:25:10.478Z,59.31
2022-08-07T06:27:59.734Z,59.10
2022-08-07T06:30:36.235Z,56.76
2022-08-07T06:33:25.180Z,56.53
2022-08-07T06:36:12.796Z,56.63
2022-08-07T06:38:59.689Z,55.67
2022-08-07T06:42:00.474Z,55.73
2022-08-07T06:44:51.156Z,54.52
2022-08-07T06:47:24.129Z,55.23
2022-08-07T06:49:58.476Z,54.95
2022-08-07T06:52:36.681Z,54.55
2022-08-07T06:55:32.876Z,53.43
2022-08-07T06:58:13.939Z,54.49
2022-08-07T07:00:55.267Z,54.35
2022-08-07T07:03:40.124Z,53.04
2022-08-07T07:06:11.536Z,52.15
2022-08-07T07:08:39.915Z,52.41
2022-08-07T07:12:08.991Z,51.32
2022-08-07T07:14:02.795Z,51.91
2022-08-07T07:16:45.341Z,52.15
2022-08-07T07:19:55.225Z,53.15
2022-08-07T07:22:36.590Z,51.22
2022-08-07T07:26:34.227Z,51.13
2022-08-07T07:28:42.549Z,51.08
2022-08-07T07:31:08.703Z,51.43
2022-08-07T07:33:38.329Z,50.51
2022-08-07T07:36:12.738Z,50.72
2022-08-07T07:38:45.955Z,49.08
2022-08-07T07:41:16.615Z,48.38
2022-08-07T07:43:47.670Z,48.73
2022-08-07T07:46:53.862Z,46.90
2022-08-07T07:50:34.218Z,46.22
2022-08-07T07:52:15.687Z,46.20
2022-08-07T07:54:51.481Z,45.63
2022-08-07T07:57:43.786Z,44.52
2022-08-07T08:00:20.728Z,43.86
2022-08-07T08:03:16.343Z,46.32
2022-08-07T08:05:54.034Z,46.48
2022-08-07T08:08:35.637Z,46.69
2022-08-07T08:11:08.215Z,46.86
2022-08-07T08:13:53.081Z,46.20
2022-08-07T08:16:35.210Z,46.09
2022-08-07T08:19:17.259Z,46.48
2022-08-07T08:22:15.939Z,46.29
2022-08-07T08:25:09.396Z,44.29
2022-08-07T08:27:57.252Z,45.55
2022-08-07T08:30:31.994Z,45.31
2022-08-07T08:33:05.879Z,46.08
2022-08-07T08:35:50.000Z,45.77
2022-08-07T08:38:29.996Z,44.98
2022-08-07T08:41:17.453Z,44.12
2022-08-07T08:43:59.129Z,43.36
2022-08-07T08:46:41.195Z,44.24
2022-08-07T08:49:33.173Z,45.17
2022-08-07T08:52:14.293Z,44.84
2022-08-07T08:54:56.538Z,44.13
2022-08-07T08:57:45.134Z,44.89
2022-08-07T09:00:13.380Z,45.88
2022-08-07T09:03:00.811Z,48.95
2022-08-07T09:05:37.144Z,49.96
2022-08-07T09:08:35.765Z,49.94
2022-08-07T09:11:25.025Z,50.82
2022-08-07T09:14:12.303Z,50.30
2022-08-07T09:17:33.983Z,50.85
2022-08-07T09:20:37.250Z,52.25
2022-08-07T09:24:35.085Z,50.91
2022-08-07T09:26:47.941Z,50.39
2022-08-07T09:30:03.930Z,51.62
2022-08-07T09:32:57.829Z,50.89
2022-08-07T09:36:05.063Z,51.34
2022-08-07T09:38:36.044Z,51.02
2022-08-07T09:41:27.950Z,49.63
2022-08-07T09:44:19.398Z,48.91
2022-08-07T09:47:52.378Z,49.91
2022-08-07T09:50:31.526Z,49.38
2022-08-07T09:53:04.869Z,49.04
2022-08-07T09:56:37.398Z,48.26
2022-08-07T09:59:07.526Z,48.49
2022-08-07T10:02:14.743Z,48.24
2022-08-07T10:05:17.912Z,46.53
2022-08-07T10:07:59.208Z,47.24
2022-08-07T10:10:30.018Z,47.77
2022-08-07T10:13:54.697Z,46.00
2022-08-07T10:16:48.610Z,45.73
2022-08-07T10:19:37.743Z,45.20
2022-08-07T10:22:16.119Z,45.78
2022-08-07T10:24:49.963Z,46.35
2022-08-07T10:28:00.120Z,46.59
2022-08-07T10:31:01.785Z,47.02
2022-08-07T10:34:14.116Z,46.82
2022-08-07T10:36:46.209Z,45.68
2022-08-07T10:40:02.564Z,45.86
2022-08-07T10:42:41.199Z,44.96
2022-08-07T10:45:57.535Z,42.70
2022-08-07T10:48:55.351Z,43.56
2022-08-07T10:52:12.981Z,42.58
2022-08-07T10:55:01.630Z,44.00
2022-08-07T10:57:56.105Z,43.67
2022-08-07T11:00:39.127Z,43.88
2022-08-07T11:03:24.029Z,43.33
2022-08-07T11:06:29.738Z,42.90
2022-08-07T11:09:11.042Z,43.22
2022-08-07T11:12:11.785Z,43.10
2022-08-07T11:15:00.162Z,42.85
2022-08-07T11:17:46.491Z,43.03
2022-08-07T11:20:25.246Z,43.46
2022-08-07T11:23:04.069Z,43.19
2022-08-07T11:25:42.583Z,43.17
2022-08-07T11:28:34.235Z,42.49
2022-08-07T11:31:25.305Z,43.13
2022-08-07T11:34:10.304Z,43.07
2022-08-07T11:36:56.712Z,42.94
2022-08-07T11:40:05.750Z,44.03
2022-08-07T11:42:45.013Z,43.42
2022-08-07T11:46:07.374Z,43.07
2022-08-07T11:48:40.734Z,43.90
2022-08-07T11:51:41.453Z,43.75
2022-08-07T11:54:58.237Z,43.45
2022-08-07T11:57:59.861Z,42.92
2022-08-07T12:01:11.429Z,41.79
2022-08-07T12:04:25.509Z,42.32
2022-08-07T12:07:20.406Z,41.88
2022-08-07T12:10:05.820Z,41.69
2022-08-07T12:12:45.309Z,42.17
2022-08-07T12:15:35.873Z,41.69
2022-08-07T12:18:45.203Z,41.72
2022-08-07T12:22:36.615Z,41.58
2022-08-07T12:25:07.487Z,40.53
2022-08-07T12:28:05.704Z,41.32
2022-08-07T12:30:33.515Z,41.59
2022-08-07T12:33:02.086Z,41.20
2022-08-07T12:35:48.719Z,40.27
2022-08-07T12:38:38.500Z,40.98
2022-08-07T12:41:11.590Z,40.94
2022-08-07T12:44:03.823Z,40.18
2022-08-07T12:47:21.408Z,40.14
2022-08-07T12:50:38.161Z,40.07
2022-08-07T12:52:54.429Z,40.07
2022-08-07T12:55:40.975Z,39.85
2022-08-07T12:58:28.147Z,40.02
2022-08-07T13:01:32.144Z,40.68
2022-08-07T13:04:31.860Z,40.40
2022-08-07T13:08:12.681Z,40.13
2022-08-07T13:10:54.811Z,39.85
2022-08-07T13:13:47.508Z,40.02
2022-08-07T13:16:46.681Z,39.64
2022-08-07T13:19:46.220Z,40.60
2022-08-07T13:22:45.543Z,39.62
2022-08-07T13:25:45.785Z,39.62
2022-08-07T13:28:30.588Z,39.28
2022-08-07T13:31:32.176Z,39.06
2022-08-07T13:34:33.451Z,38.35
2022-08-07T13:37:19.823Z,38.38
2022-08-07T13:40:36.274Z,38.40
2022-08-07T13:42:54.142Z,37.48
2022-08-07T13:46:20.838Z,37.73
2022-08-07T13:48:27.759Z,37.96
2022-08-07T13:51:28.191Z,38.42
2022-08-07T13:54:03.076Z,38.88
2022-08-07T13:56:36.038Z,37.17
2022-08-07T13:59:25.500Z,37.91
2022-08-07T14:02:05.257Z,39.05
2022-08-07T14:04:47.501Z,39.21
2022-08-07T14:07:31.134Z,39.28
2022-08-07T14:10:16.344Z,39.72
2022-08-07T14:12:58.830Z,39.04
2022-08-07T14:15:35.020Z,39.14
2022-08-07T14:18:24.138Z,38.73
2022-08-07T14:21:07.854Z,38.59
2022-08-07T14:24:00.696Z,38.49
2022-08-07T14:26:36.278Z,38.56
2022-08-07T14:30:04.819Z,38.40
2022-08-07T14:31:59.293Z,38.46
2022-08-07T14:34:30.866Z,37.86
2022-08-07T14:37:03.417Z,37.51
2022-08-07T14:40:15.517Z,37.42
2022-08-07T14:42:31.344Z,37.73
2022-08-07T14:45:22.021Z,37.30
2022-08-07T14:47:58.610Z,37.24
2022-08-07T14:50:28.793Z,36.60
2022-08-07T14:55:55.597Z,35.78
2022-08-07T14:58:33.776Z,36.08
2022-08-07T15:01:21.319Z,36.15
2022-08-07T15:03:54.624Z,36.39
2022-08-07T15:06:32.553Z,35.67
2022-08-07T15:09:59.154Z,35.91
2022-08-07T15:12:25.668Z,36.61
2022-08-07T15:15:07.845Z,36.99
2022-08-07T15:17:55.546Z,37.57
2022-08-07T15:20:32.822Z,37.73
2022-08-07T15:23:02.815Z,37.06
2022-08-07T15:25:58.447Z,36.42
2022-08-07T15:28:34.944Z,36.77
2022-08-07T15:31:09.760Z,37.46
2022-08-07T15:33:42.700Z,38.42
2022-08-07T15:36:10.584Z,37.47
2022-08-07T15:38:58.567Z,37.88
2022-08-07T15:42:44.418Z,37.89
2022-08-07T15:44:20.871Z,37.58
2022-08-07T15:47:08.910Z,37.27
2022-08-07T15:50:06.077Z,37.12
2022-08-07T15:52:38.000Z,36.86
2022-08-07T15:55:11.387Z,37.00
2022-08-07T15:57:48.704Z,37.18
2022-08-07T16:00:31.848Z,37.01
2022-08-07T16:03:20.855Z,37.27
2022-08-07T16:05:57.902Z,37.81
2022-08-07T16:08:37.931Z,38.03
2022-08-07T16:11:28.655Z,38.07
2022-08-07T16:14:06.216Z,38.25
2022-08-07T16:16:57.046Z,38.57
2022-08-07T16:19:58.831Z,38.00
2022-08-07T16:22:33.805Z,38.20
2022-08-07T16:25:23.281Z,38.70
2022-08-07T16:29:18.427Z,38.91
2022-08-07T16:31:52.026Z,39.79
2022-08-07T16:34:55.549Z,43.42
2022-08-07T16:38:03.626Z,44.01
2022-08-07T16:40:31.950Z,44.65
2022-08-07T16:43:17.717Z,44.41
2022-08-07T16:47:08.986Z,45.11
2022-08-07T16:50:28.021Z,45.08
2022-08-07T16:52:52.609Z,45.03
2022-08-07T16:55:52.226Z,45.58
2022-08-07T16:59:11.000Z,45.56
2022-08-07T17:01:49.523Z,44.97
2022-08-07T17:04:50.692Z,45.60
2022-08-07T17:07:55.175Z,45.87
2022-08-07T17:10:56.130Z,46.11
2022-08-07T17:14:02.190Z,46.19
2022-08-07T17:16:33.514Z,46.75
2022-08-07T17:19:04.710Z,47.14
2022-08-07T17:21:50.781Z,46.85
2022-08-07T17:24:31.866Z,46.35
2022-08-07T17:26:58.606Z,46.62
2022-08-07T17:30:14.915Z,46.13
2022-08-07T17:33:02.131Z,45.04
2022-08-07T17:35:55.038Z,45.78
2022-08-07T17:38:39.727Z,46.44
2022-08-07T17:42:04.633Z,46.91
2022-08-07T17:44:33.967Z,46.75
2022-08-07T17:47:16.928Z,46.11
2022-08-07T17:49:58.573Z,45.98
2022-08-07T17:52:39.768Z,46.06
2022-08-07T17:55:16.473Z,46.32
2022-08-07T17:58:32.102Z,46.79
2022-08-07T18:01:18.065Z,46.17
2022-08-07T18:04:30.773Z,45.51
2022-08-07T18:07:28.477Z,45.03
2022-08-07T18:10:32.509Z,44.97
2022-08-07T18:13:23.123Z,45.38
2022-08-07T18:16:09.457Z,45.45
2022-08-07T18:21:08.043Z,45.63
2022-08-07T18:21:55.085Z,45.93
2022-08-07T18:25:19.171Z,47.67
2022-08-07T18:28:21.539Z,49.66
2022-08-07T18:31:18.458Z,50.33
2022-08-07T18:34:40.873Z,51.26
2022-08-07T18:38:55.882Z,51.61
2022-08-07T18:40:43.878Z,52.52
2022-08-07T18:43:48.942Z,52.35
2022-08-07T18:46:25.764Z,53.33
2022-08-07T18:50:31.321Z,53.91
2022-08-07T18:52:56.473Z,54.40
2022-08-07T18:55:59.053Z,54.04
2022-08-07T18:59:09.753Z,54.84
2022-08-07T19:05:20.846Z,55.62
2022-08-07T19:08:06.314Z,56.58
2022-08-07T19:10:51.733Z,56.32
2022-08-07T19:13:45.991Z,56.50
2022-08-07T19:17:00.545Z,56.80
2022-08-07T19:19:56.344Z,57.79
2022-08-07T19:22:44.854Z,58.17
2022-08-07T19:26:23.199Z,58.90
2022-08-07T19:28:58.136Z,59.46
2022-08-07T19:31:40.461Z,61.08
2022-08-07T19:34:04.963Z,61.25
2022-08-07T19:36:39.424Z,63.10
2022-08-07T19:39:10.413Z,62.11
2022-08-07T19:42:06.194Z,63.68
2022-08-07T19:44:41.032Z,63.38
2022-08-07T19:47:14.615Z,63.51
2022-08-07T19:49:57.490Z,64.92
2022-08-07T19:52:30.912Z,64.74
2022-08-07T19:54:59.813Z,65.17
2022-08-07T19:58:00.224Z,65.78
2022-08-07T20:00:34.677Z,66.64
2022-08-07T20:03:05.819Z,66.68
2022-08-07T20:06:02.319Z,67.25
2022-08-07T20:08:34.283Z,67.42
2022-08-07T20:11:10.632Z,68.15
2022-08-07T20:13:46.713Z,67.88
2022-08-07T20:16:36.327Z,68.20
2022-08-07T20:19:10.891Z,68.96
2022-08-07T20:21:47.748Z,69.18
2022-08-07T20:24:28.526Z,68.92
2022-08-07T20:26:58.990Z,69.91
2022-08-07T20:29:47.631Z,69.55
2022-08-07T20:32:25.937Z,69.98
2022-08-07T20:35:00.073Z,69.95
2022-08-07T20:37:37.032Z,70.48
2022-08-07T20:40:32.985Z,71.38
2022-08-07T20:43:03.142Z,70.87
2022-08-07T20:46:27.745Z,71.30
2022-08-07T20:48:30.503Z,72.71
2022-08-07T20:51:00.348Z,72.80
2022-08-07T20:54:04.820Z,72.29
2022-08-07T20:56:16.816Z,72.62
2022-08-07T20:58:56.679Z,73.92
2022-08-07T21:01:26.877Z,74.39
2022-08-07T21:04:22.064Z,74.46
2022-08-07T21:06:57.451Z,74.65
2022-08-07T21:09:51.788Z,75.59
2022-08-07T21:12:30.700Z,75.76
2022-08-07T21:15:03.159Z,76.27
2022-08-07T21:18:20.848Z,76.67
2022-08-07T21:20:30.287Z,77.39
2022-08-07T21:23:08.744Z,77.52
2022-08-07T21:25:56.338Z,77.73
2022-08-07T21:28:48.074Z,77.56
2022-08-07T21:32:43.124Z,78.77
2022-08-07T21:34:49.412Z,78.93
2022-08-07T21:37:58.832Z,79.42
2022-08-07T21:40:35.965Z,79.99
2022-08-07T21:43:13.270Z,80.34
2022-08-07T21:46:08.814Z,80.79
2022-08-07T21:48:56.353Z,81.04
2022-08-07T21:51:51.080Z,81.21
2022-08-07T21:54:45.982Z,80.87
2022-08-07T21:57:51.859Z,81.74
2022-08-07T22:00:25.436Z,82.46
2022-08-07T22:03:17.397Z,82.74
2022-08-07T22:06:30.307Z,83.26
2022-08-07T22:09:12.851Z,83.35
2022-08-07T22:12:04.925Z,83.40
2022-08-07T22:14:44.181Z,83.82
2022-08-07T22:17:36.054Z,84.20
2022-08-07T22:20:23.053Z,84.34
2022-08-07T22:22:57.224Z,84.27
2022-08-07T22:25:37.126Z,84.92
2022-08-07T22:28:32.198Z,85.41
2022-08-07T22:31:45.301Z,87.00
2022-08-07T22:34:36.978Z,86.41
2022-08-07T22:37:13.389Z,87.33
2022-08-07T22:40:04.792Z,87.73
2022-08-07T22:42:35.047Z,87.91
2022-08-07T22:45:10.942Z,88.24
2022-08-07T22:48:31.445Z,88.67
2022-08-07T22:51:21.817Z,88.72
2022-08-07T22:54:16.143Z,89.56
2022-08-07T22:57:21.140Z,90.21
2022-08-07T23:00:04.232Z,90.32
2022-08-07T23:02:43.195Z,90.12
2022-08-07T23:06:09.553Z,91.80
2022-08-07T23:08:58.662Z,92.21
2022-08-07T23:12:32.911Z,91.01
2022-08-07T23:15:10.917Z,91.23
2022-08-07T23:18:01.214Z,90.83
2022-08-07T23:20:40.403Z,91.49
2022-08-07T23:24:07.025Z,91.32
2022-08-07T23:26:12.739Z,93.03
2022-08-07T23:29:02.717Z,92.46
2022-08-07T23:34:18.823Z,93.04
2022-08-07T23:35:22.706Z,94.13
2022-08-07T23:38:06.562Z,95.23
2022-08-07T23:40:39.833Z,96.15
2022-08-07T23:43:42.798Z,95.77
2022-08-07T23:46:30.900Z,95.78
2022-08-07T23:49:42.064Z,97.25
2022-08-07T23:53:05.979Z,97.03
2022-08-07T23:56:02.528Z,97.48
2022-08-07T23:58:42.276Z,95.95
